sensor_id;sensor_type;location;lat;lon;timestamp;P1;durP1;ratioP1;P2;durP2;ratioP2
75593;SDS011;64176;49.156;7.810;2023-05-07T00:01:11;3.28;;;2.47;;
75593;SDS011;64176;49.156;7.810;2023-05-07T00:03:55;2.97;;;2.28;;
75593;SDS011;64176;49.156;7.810;2023-05-07T00:06:39;4.50;;;2.95;;
75593;SDS011;64176;49.156;7.810;2023-05-07T00:09:23;5.60;;;3.05;;
75593;SDS011;64176;49.156;7.810;2023-05-07T00:12:07;3.42;;;2.95;;
75593;SDS011;64176;49.156;7.810;2023-05-07T00:14:51;4.47;;;2.40;;
75593;SDS011;64176;49.156;7.810;2023-05-07T00:17:38;3.38;;;2.97;;
75593;SDS011;64176;49.156;7.810;2023-05-07T00:20:22;3.28;;;2.58;;
75593;SDS011;64176;49.156;7.810;2023-05-07T00:23:06;5.28;;;3.92;;
75593;SDS011;64176;49.156;7.810;2023-05-07T00:25:49;3.85;;;3.00;;
75593;SDS011;64176;49.156;7.810;2023-05-07T00:28:33;3.90;;;3.55;;
75593;SDS011;64176;49.156;7.810;2023-05-07T00:31:18;3.72;;;3.30;;
75593;SDS011;64176;49.156;7.810;2023-05-07T00:34:02;3.05;;;2.75;;
75593;SDS011;64176;49.156;7.810;2023-05-07T00:36:49;4.35;;;3.67;;
75593;SDS011;64176;49.156;7.810;2023-05-07T00:39:33;5.50;;;3.70;;
75593;SDS011;64176;49.156;7.810;2023-05-07T00:42:17;4.60;;;2.70;;
75593;SDS011;64176;49.156;7.810;2023-05-07T00:45:01;6.03;;;2.83;;
75593;SDS011;64176;49.156;7.810;2023-05-07T00:47:46;3.80;;;3.25;;
75593;SDS011;64176;49.156;7.810;2023-05-07T00:50:31;5.68;;;3.40;;
75593;SDS011;64176;49.156;7.810;2023-05-07T00:53:18;7.22;;;4.38;;
75593;SDS011;64176;49.156;7.810;2023-05-07T00:56:03;5.05;;;3.30;;
75593;SDS011;64176;49.156;7.810;2023-05-07T00:58:48;3.70;;;3.30;;
75593;SDS011;64176;49.156;7.810;2023-05-07T01:01:32;6.63;;;4.63;;
75593;SDS011;64176;49.156;7.810;2023-05-07T01:04:19;4.97;;;3.65;;
75593;SDS011;64176;49.156;7.810;2023-05-07T01:07:03;5.55;;;3.10;;
75593;SDS011;64176;49.156;7.810;2023-05-07T01:09:48;3.50;;;2.40;;
75593;SDS011;64176;49.156;7.810;2023-05-07T01:12:32;2.65;;;2.45;;
75593;SDS011;64176;49.156;7.810;2023-05-07T01:15:21;4.70;;;3.00;;
75593;SDS011;64176;49.156;7.810;2023-05-07T01:18:06;3.20;;;2.90;;
75593;SDS011;64176;49.156;7.810;2023-05-07T01:20:55;4.20;;;3.00;;
75593;SDS011;64176;49.156;7.810;2023-05-07T01:23:42;3.92;;;3.50;;
75593;SDS011;64176;49.156;7.810;2023-05-07T01:26:26;3.13;;;2.80;;
75593;SDS011;64176;49.156;7.810;2023-05-07T01:29:16;4.20;;;3.40;;
75593;SDS011;64176;49.156;7.810;2023-05-07T01:32:01;4.05;;;3.45;;
75593;SDS011;64176;49.156;7.810;2023-05-07T01:34:46;4.10;;;3.45;;
75593;SDS011;64176;49.156;7.810;2023-05-07T01:37:32;2.95;;;2.67;;
75593;SDS011;64176;49.156;7.810;2023-05-07T01:40:17;3.42;;;3.03;;
75593;SDS011;64176;49.156;7.810;2023-05-07T01:43:02;4.97;;;3.10;;
75593;SDS011;64176;49.156;7.810;2023-05-07T01:45:47;4.00;;;3.20;;
75593;SDS011;64176;49.156;7.810;2023-05-07T01:48:33;4.72;;;3.50;;
75593;SDS011;64176;49.156;7.810;2023-05-07T01:51:22;5.05;;;3.03;;
75593;SDS011;64176;49.156;7.810;2023-05-07T01:54:13;3.88;;;3.45;;
75593;SDS011;64176;49.156;7.810;2023-05-07T01:56:59;4.07;;;3.08;;
75593;SDS011;64176;49.156;7.810;2023-05-07T01:59:44;5.53;;;2.97;;
75593;SDS011;64176;49.156;7.810;2023-05-07T02:02:28;3.63;;;3.00;;
75593;SDS011;64176;49.156;7.810;2023-05-07T02:05:14;3.15;;;2.83;;
75593;SDS011;64176;49.156;7.810;2023-05-07T02:07:59;4.43;;;3.28;;
75593;SDS011;64176;49.156;7.810;2023-05-07T02:10:48;5.28;;;3.10;;
75593;SDS011;64176;49.156;7.810;2023-05-07T02:13:33;3.92;;;3.28;;
75593;SDS011;64176;49.156;7.810;2023-05-07T02:16:20;4.57;;;4.07;;
75593;SDS011;64176;49.156;7.810;2023-05-07T02:19:06;3.58;;;3.10;;
75593;SDS011;64176;49.156;7.810;2023-05-07T02:21:50;5.93;;;3.15;;
75593;SDS011;64176;49.156;7.810;2023-05-07T02:24:34;4.13;;;3.08;;
75593;SDS011;64176;49.156;7.810;2023-05-07T02:27:19;4.47;;;3.13;;
75593;SDS011;64176;49.156;7.810;2023-05-07T02:30:03;3.35;;;3.05;;
75593;SDS011;64176;49.156;7.810;2023-05-07T02:32:49;4.60;;;3.05;;
75593;SDS011;64176;49.156;7.810;2023-05-07T02:35:33;4.00;;;3.28;;
75593;SDS011;64176;49.156;7.810;2023-05-07T02:38:18;5.22;;;3.45;;
75593;SDS011;64176;49.156;7.810;2023-05-07T02:41:04;4.00;;;2.97;;
75593;SDS011;64176;49.156;7.810;2023-05-07T02:43:49;4.25;;;2.78;;
75593;SDS011;64176;49.156;7.810;2023-05-07T02:46:35;4.18;;;3.40;;
75593;SDS011;64176;49.156;7.810;2023-05-07T02:49:26;3.40;;;3.10;;
75593;SDS011;64176;49.156;7.810;2023-05-07T02:52:10;3.80;;;3.38;;
75593;SDS011;64176;49.156;7.810;2023-05-07T02:54:54;4.57;;;3.30;;
75593;SDS011;64176;49.156;7.810;2023-05-07T02:57:38;3.50;;;3.20;;
75593;SDS011;64176;49.156;7.810;2023-05-07T03:00:25;5.03;;;3.17;;
75593;SDS011;64176;49.156;7.810;2023-05-07T03:03:22;2.92;;;2.45;;
75593;SDS011;64176;49.156;7.810;2023-05-07T03:06:07;3.90;;;3.50;;
75593;SDS011;64176;49.156;7.810;2023-05-07T03:08:54;4.38;;;3.78;;
75593;SDS011;64176;49.156;7.810;2023-05-07T03:11:37;3.85;;;3.53;;
75593;SDS011;64176;49.156;7.810;2023-05-07T03:14:21;3.92;;;2.83;;
75593;SDS011;64176;49.156;7.810;2023-05-07T03:17:06;6.97;;;3.95;;
75593;SDS011;64176;49.156;7.810;2023-05-07T03:19:49;4.60;;;2.72;;
75593;SDS011;64176;49.156;7.810;2023-05-07T03:22:33;3.78;;;3.20;;
75593;SDS011;64176;49.156;7.810;2023-05-07T03:25:18;7.90;;;3.47;;
75593;SDS011;64176;49.156;7.810;2023-05-07T03:28:02;3.67;;;3.38;;
75593;SDS011;64176;49.156;7.810;2023-05-07T03:30:55;3.97;;;3.55;;
75593;SDS011;64176;49.156;7.810;2023-05-07T03:33:49;2.95;;;2.63;;
75593;SDS011;64176;49.156;7.810;2023-05-07T03:36:35;3.88;;;3.58;;
75593;SDS011;64176;49.156;7.810;2023-05-07T03:39:21;4.20;;;3.83;;
75593;SDS011;64176;49.156;7.810;2023-05-07T03:42:06;7.20;;;3.63;;
75593;SDS011;64176;49.156;7.810;2023-05-07T03:44:51;3.70;;;3.30;;
75593;SDS011;64176;49.156;7.810;2023-05-07T03:47:35;4.25;;;3.60;;
75593;SDS011;64176;49.156;7.810;2023-05-07T03:50:22;3.75;;;3.35;;
75593;SDS011;64176;49.156;7.810;2023-05-07T03:55:55;3.63;;;3.28;;
75593;SDS011;64176;49.156;7.810;2023-05-07T03:58:39;5.47;;;3.15;;
75593;SDS011;64176;49.156;7.810;2023-05-07T04:01:27;3.70;;;3.30;;
75593;SDS011;64176;49.156;7.810;2023-05-07T04:04:12;4.35;;;3.63;;
75593;SDS011;64176;49.156;7.810;2023-05-07T04:06:56;4.32;;;3.92;;
75593;SDS011;64176;49.156;7.810;2023-05-07T04:09:40;4.45;;;4.00;;
75593;SDS011;64176;49.156;7.810;2023-05-07T04:12:24;5.20;;;3.00;;
75593;SDS011;64176;49.156;7.810;2023-05-07T04:15:08;4.50;;;3.58;;
75593;SDS011;64176;49.156;7.810;2023-05-07T04:17:53;4.45;;;4.03;;
75593;SDS011;64176;49.156;7.810;2023-05-07T04:20:40;4.55;;;4.13;;
75593;SDS011;64176;49.156;7.810;2023-05-07T04:23:28;4.55;;;3.63;;
75593;SDS011;64176;49.156;7.810;2023-05-07T04:26:15;3.55;;;3.10;;
75593;SDS011;64176;49.156;7.810;2023-05-07T04:29:01;4.78;;;3.60;;
75593;SDS011;64176;49.156;7.810;2023-05-07T04:31:50;3.88;;;3.50;;
75593;SDS011;64176;49.156;7.810;2023-05-07T04:34:34;3.45;;;3.15;;
75593;SDS011;64176;49.156;7.810;2023-05-07T04:37:20;4.85;;;3.28;;
75593;SDS011;64176;49.156;7.810;2023-05-07T04:40:05;4.03;;;3.63;;
75593;SDS011;64176;49.156;7.810;2023-05-07T04:42:50;4.13;;;3.72;;
75593;SDS011;64176;49.156;7.810;2023-05-07T04:45:35;5.38;;;3.58;;
75593;SDS011;64176;49.156;7.810;2023-05-07T04:48:20;4.15;;;3.75;;
75593;SDS011;64176;49.156;7.810;2023-05-07T04:51:05;4.95;;;3.30;;
75593;SDS011;64176;49.156;7.810;2023-05-07T04:53:51;3.83;;;3.53;;
75593;SDS011;64176;49.156;7.810;2023-05-07T04:56:37;3.63;;;3.33;;
75593;SDS011;64176;49.156;7.810;2023-05-07T04:59:21;4.93;;;3.00;;
75593;SDS011;64176;49.156;7.810;2023-05-07T05:02:07;5.57;;;3.80;;
75593;SDS011;64176;49.156;7.810;2023-05-07T05:04:51;5.47;;;3.30;;
75593;SDS011;64176;49.156;7.810;2023-05-07T05:07:36;3.40;;;3.10;;
75593;SDS011;64176;49.156;7.810;2023-05-07T05:10:20;3.92;;;3.40;;
75593;SDS011;64176;49.156;7.810;2023-05-07T05:13:07;4.03;;;3.38;;
75593;SDS011;64176;49.156;7.810;2023-05-07T05:15:52;6.53;;;4.88;;
75593;SDS011;64176;49.156;7.810;2023-05-07T05:18:37;4.60;;;3.95;;
75593;SDS011;64176;49.156;7.810;2023-05-07T05:21:25;5.35;;;3.20;;
75593;SDS011;64176;49.156;7.810;2023-05-07T05:24:17;6.38;;;3.47;;
75593;SDS011;64176;49.156;7.810;2023-05-07T05:27:01;4.05;;;3.47;;
75593;SDS011;64176;49.156;7.810;2023-05-07T05:29:48;6.20;;;3.92;;
75593;SDS011;64176;49.156;7.810;2023-05-07T05:38:03;5.00;;;3.65;;
75593;SDS011;64176;49.156;7.810;2023-05-07T05:40:47;4.20;;;3.80;;
75593;SDS011;64176;49.156;7.810;2023-05-07T05:43:33;4.25;;;3.85;;
75593;SDS011;64176;49.156;7.810;2023-05-07T05:46:18;4.55;;;3.90;;
75593;SDS011;64176;49.156;7.810;2023-05-07T05:49:02;5.30;;;3.80;;
75593;SDS011;64176;49.156;7.810;2023-05-07T05:51:46;4.15;;;3.58;;
75593;SDS011;64176;49.156;7.810;2023-05-07T05:54:31;3.92;;;3.10;;
75593;SDS011;64176;49.156;7.810;2023-05-07T05:57:15;4.05;;;3.65;;
75593;SDS011;64176;49.156;7.810;2023-05-07T06:00:02;3.72;;;3.40;;
75593;SDS011;64176;49.156;7.810;2023-05-07T06:02:50;3.92;;;3.13;;
75593;SDS011;64176;49.156;7.810;2023-05-07T06:05:39;4.97;;;3.70;;
75593;SDS011;64176;49.156;7.810;2023-05-07T06:08:23;5.32;;;4.00;;
75593;SDS011;64176;49.156;7.810;2023-05-07T06:11:10;5.63;;;3.90;;
75593;SDS011;64176;49.156;7.810;2023-05-07T06:13:56;4.25;;;3.70;;
75593;SDS011;64176;49.156;7.810;2023-05-07T06:16:44;3.78;;;3.35;;
75593;SDS011;64176;49.156;7.810;2023-05-07T06:19:28;4.40;;;3.55;;
75593;SDS011;64176;49.156;7.810;2023-05-07T06:22:14;3.60;;;3.30;;
75593;SDS011;64176;49.156;7.810;2023-05-07T06:24:59;4.78;;;3.38;;
75593;SDS011;64176;49.156;7.810;2023-05-07T06:27:43;4.75;;;3.20;;
75593;SDS011;64176;49.156;7.810;2023-05-07T06:30:28;3.55;;;3.25;;
75593;SDS011;64176;49.156;7.810;2023-05-07T06:33:13;4.30;;;2.55;;
75593;SDS011;64176;49.156;7.810;2023-05-07T06:36:00;3.88;;;2.83;;
75593;SDS011;64176;49.156;7.810;2023-05-07T06:38:44;3.08;;;2.78;;
75593;SDS011;64176;49.156;7.810;2023-05-07T06:41:29;3.83;;;3.38;;
75593;SDS011;64176;49.156;7.810;2023-05-07T06:44:17;4.97;;;3.15;;
75593;SDS011;64176;49.156;7.810;2023-05-07T06:47:05;3.78;;;2.90;;
75593;SDS011;64176;49.156;7.810;2023-05-07T06:49:52;3.55;;;3.13;;
75593;SDS011;64176;49.156;7.810;2023-05-07T06:52:42;5.47;;;3.15;;
75593;SDS011;64176;49.156;7.810;2023-05-07T06:55:28;3.25;;;2.85;;
75593;SDS011;64176;49.156;7.810;2023-05-07T06:58:13;2.70;;;2.50;;
75593;SDS011;64176;49.156;7.810;2023-05-07T07:00:57;4.97;;;4.63;;
75593;SDS011;64176;49.156;7.810;2023-05-07T07:03:41;4.18;;;3.33;;
75593;SDS011;64176;49.156;7.810;2023-05-07T07:06:25;2.83;;;2.63;;
75593;SDS011;64176;49.156;7.810;2023-05-07T07:09:09;4.07;;;3.17;;
75593;SDS011;64176;49.156;7.810;2023-05-07T07:11:54;2.97;;;2.67;;
75593;SDS011;64176;49.156;7.810;2023-05-07T07:14:38;5.82;;;2.05;;
75593;SDS011;64176;49.156;7.810;2023-05-07T07:17:23;2.58;;;1.95;;
75593;SDS011;64176;49.156;7.810;2023-05-07T07:20:07;2.55;;;2.25;;
75593;SDS011;64176;49.156;7.810;2023-05-07T07:22:52;2.13;;;1.67;;
75593;SDS011;64176;49.156;7.810;2023-05-07T07:25:36;2.00;;;1.80;;
75593;SDS011;64176;49.156;7.810;2023-05-07T07:28:21;2.65;;;1.80;;
75593;SDS011;64176;49.156;7.810;2023-05-07T07:31:06;2.50;;;2.10;;
75593;SDS011;64176;49.156;7.810;2023-05-07T07:33:50;2.13;;;1.77;;
75593;SDS011;64176;49.156;7.810;2023-05-07T07:36:35;4.38;;;1.90;;
75593;SDS011;64176;49.156;7.810;2023-05-07T07:39:19;6.10;;;4.10;;
75593;SDS011;64176;49.156;7.810;2023-05-07T07:42:05;4.68;;;2.83;;
75593;SDS011;64176;49.156;7.810;2023-05-07T07:44:50;4.38;;;2.00;;
75593;SDS011;64176;49.156;7.810;2023-05-07T07:47:39;4.35;;;1.80;;
75593;SDS011;64176;49.156;7.810;2023-05-07T07:50:24;2.45;;;1.67;;
75593;SDS011;64176;49.156;7.810;2023-05-07T07:53:09;2.03;;;1.27;;
75593;SDS011;64176;49.156;7.810;2023-05-07T07:55:53;2.45;;;1.38;;
75593;SDS011;64176;49.156;7.810;2023-05-07T07:58:40;2.65;;;1.40;;
75593;SDS011;64176;49.156;7.810;2023-05-07T08:01:23;1.73;;;1.50;;
75593;SDS011;64176;49.156;7.810;2023-05-07T08:04:08;2.83;;;1.55;;
75593;SDS011;64176;49.156;7.810;2023-05-07T08:06:56;2.03;;;1.30;;
75593;SDS011;64176;49.156;7.810;2023-05-07T08:09:43;1.60;;;1.50;;
75593;SDS011;64176;49.156;7.810;2023-05-07T08:12:29;2.00;;;1.55;;
75593;SDS011;64176;49.156;7.810;2023-05-07T08:15:12;2.30;;;1.40;;
75593;SDS011;64176;49.156;7.810;2023-05-07T08:17:57;4.55;;;1.92;;
75593;SDS011;64176;49.156;7.810;2023-05-07T08:20:44;3.58;;;1.80;;
75593;SDS011;64176;49.156;7.810;2023-05-07T08:23:34;4.03;;;2.47;;
75593;SDS011;64176;49.156;7.810;2023-05-07T08:26:19;1.55;;;1.30;;
75593;SDS011;64176;49.156;7.810;2023-05-07T08:29:05;1.55;;;0.80;;
75593;SDS011;64176;49.156;7.810;2023-05-07T08:31:49;2.63;;;1.50;;
75593;SDS011;64176;49.156;7.810;2023-05-07T08:34:34;2.08;;;1.50;;
75593;SDS011;64176;49.156;7.810;2023-05-07T08:37:22;1.77;;;1.08;;
75593;SDS011;64176;49.156;7.810;2023-05-07T08:40:07;2.95;;;1.73;;
75593;SDS011;64176;49.156;7.810;2023-05-07T08:42:53;2.45;;;1.02;;
75593;SDS011;64176;49.156;7.810;2023-05-07T08:45:43;9.00;;;3.70;;
75593;SDS011;64176;49.156;7.810;2023-05-07T08:48:29;6.45;;;4.53;;
75593;SDS011;64176;49.156;7.810;2023-05-07T08:51:26;2.35;;;2.15;;
75593;SDS011;64176;49.156;7.810;2023-05-07T08:54:11;1.90;;;1.70;;
75593;SDS011;64176;49.156;7.810;2023-05-07T08:56:59;3.78;;;1.58;;
75593;SDS011;64176;49.156;7.810;2023-05-07T08:59:44;2.78;;;1.52;;
75593;SDS011;64176;49.156;7.810;2023-05-07T09:02:29;1.80;;;1.02;;
75593;SDS011;64176;49.156;7.810;2023-05-07T09:05:13;2.20;;;1.40;;
75593;SDS011;64176;49.156;7.810;2023-05-07T09:08:00;2.17;;;1.60;;
75593;SDS011;64176;49.156;7.810;2023-05-07T09:10:49;4.20;;;2.55;;
75593;SDS011;64176;49.156;7.810;2023-05-07T09:13:34;2.88;;;2.42;;
75593;SDS011;64176;49.156;7.810;2023-05-07T09:16:23;6.28;;;5.78;;
75593;SDS011;64176;49.156;7.810;2023-05-07T09:19:09;4.32;;;2.80;;
75593;SDS011;64176;49.156;7.810;2023-05-07T09:22:01;1.85;;;1.38;;
75593;SDS011;64176;49.156;7.810;2023-05-07T09:24:59;1.75;;;1.65;;
75593;SDS011;64176;49.156;7.810;2023-05-07T09:27:44;1.25;;;1.13;;
75593;SDS011;64176;49.156;7.810;2023-05-07T09:30:28;2.08;;;1.25;;
75593;SDS011;64176;49.156;7.810;2023-05-07T09:33:15;1.42;;;1.33;;
75593;SDS011;64176;49.156;7.810;2023-05-07T09:36:03;2.38;;;1.33;;
75593;SDS011;64176;49.156;7.810;2023-05-07T09:38:51;1.55;;;1.30;;
75593;SDS011;64176;49.156;7.810;2023-05-07T09:41:45;2.38;;;1.30;;
75593;SDS011;64176;49.156;7.810;2023-05-07T09:44:38;2.63;;;1.30;;
75593;SDS011;64176;49.156;7.810;2023-05-07T09:47:27;1.67;;;1.58;;
75593;SDS011;64176;49.156;7.810;2023-05-07T09:50:16;5.50;;;2.20;;
75593;SDS011;64176;49.156;7.810;2023-05-07T09:53:05;2.58;;;2.17;;
75593;SDS011;64176;49.156;7.810;2023-05-07T09:55:51;1.88;;;1.60;;
75593;SDS011;64176;49.156;7.810;2023-05-07T09:58:40;2.15;;;1.92;;
75593;SDS011;64176;49.156;7.810;2023-05-07T10:01:26;2.42;;;1.50;;
75593;SDS011;64176;49.156;7.810;2023-05-07T10:04:11;1.23;;;1.13;;
75593;SDS011;64176;49.156;7.810;2023-05-07T10:06:57;3.33;;;1.60;;
75593;SDS011;64176;49.156;7.810;2023-05-07T10:09:43;3.03;;;1.95;;
75593;SDS011;64176;49.156;7.810;2023-05-07T10:12:36;4.72;;;1.60;;
75593;SDS011;64176;49.156;7.810;2023-05-07T10:15:30;2.97;;;1.70;;
75593;SDS011;64176;49.156;7.810;2023-05-07T10:18:16;3.83;;;1.40;;
75593;SDS011;64176;49.156;7.810;2023-05-07T10:21:08;1.65;;;1.38;;
75593;SDS011;64176;49.156;7.810;2023-05-07T10:24:00;1.92;;;1.73;;
75593;SDS011;64176;49.156;7.810;2023-05-07T10:29:53;2.63;;;1.77;;
75593;SDS011;64176;49.156;7.810;2023-05-07T10:32:51;1.33;;;1.17;;
75593;SDS011;64176;49.156;7.810;2023-05-07T10:35:47;3.10;;;1.50;;
75593;SDS011;64176;49.156;7.810;2023-05-07T10:38:33;2.65;;;1.42;;
75593;SDS011;64176;49.156;7.810;2023-05-07T10:41:19;2.38;;;1.27;;
75593;SDS011;64176;49.156;7.810;2023-05-07T10:44:05;2.47;;;1.40;;
75593;SDS011;64176;49.156;7.810;2023-05-07T10:47:04;3.03;;;1.55;;
75593;SDS011;64176;49.156;7.810;2023-05-07T11:02:07;2.47;;;1.73;;
75593;SDS011;64176;49.156;7.810;2023-05-07T11:05:21;2.90;;;1.55;;
75593;SDS011;64176;49.156;7.810;2023-05-07T11:08:21;2.10;;;1.90;;
75593;SDS011;64176;49.156;7.810;2023-05-07T11:11:14;2.28;;;1.70;;
75593;SDS011;64176;49.156;7.810;2023-05-07T11:14:03;2.13;;;1.40;;
75593;SDS011;64176;49.156;7.810;2023-05-07T11:17:02;3.03;;;1.75;;
75593;SDS011;64176;49.156;7.810;2023-05-07T11:26:41;3.78;;;1.52;;
75593;SDS011;64176;49.156;7.810;2023-05-07T11:29:29;1.77;;;1.45;;
75593;SDS011;64176;49.156;7.810;2023-05-07T11:32:24;5.00;;;3.65;;
75593;SDS011;64176;49.156;7.810;2023-05-07T11:35:11;2.47;;;2.28;;
75593;SDS011;64176;49.156;7.810;2023-05-07T11:37:59;2.60;;;2.20;;
75593;SDS011;64176;49.156;7.810;2023-05-07T11:40:50;4.28;;;1.77;;
75593;SDS011;64176;49.156;7.810;2023-05-07T11:43:35;2.00;;;1.75;;
75593;SDS011;64176;49.156;7.810;2023-05-07T11:46:19;3.15;;;1.70;;
75593;SDS011;64176;49.156;7.810;2023-05-07T11:49:03;2.30;;;1.52;;
75593;SDS011;64176;49.156;7.810;2023-05-07T11:51:48;2.03;;;1.55;;
75593;SDS011;64176;49.156;7.810;2023-05-07T11:54:38;3.00;;;2.00;;
75593;SDS011;64176;49.156;7.810;2023-05-07T11:57:24;3.35;;;1.88;;
75593;SDS011;64176;49.156;7.810;2023-05-07T12:00:09;2.45;;;1.83;;
75593;SDS011;64176;49.156;7.810;2023-05-07T12:03:03;3.40;;;1.70;;
75593;SDS011;64176;49.156;7.810;2023-05-07T12:05:48;2.63;;;1.75;;
75593;SDS011;64176;49.156;7.810;2023-05-07T12:08:32;2.65;;;2.13;;
75593;SDS011;64176;49.156;7.810;2023-05-07T12:11:23;5.53;;;2.55;;
75593;SDS011;64176;49.156;7.810;2023-05-07T12:14:12;2.10;;;1.85;;
75593;SDS011;64176;49.156;7.810;2023-05-07T12:16:57;5.47;;;2.70;;
75593;SDS011;64176;49.156;7.810;2023-05-07T12:19:41;4.28;;;2.88;;
75593;SDS011;64176;49.156;7.810;2023-05-07T12:22:27;3.45;;;2.10;;
75593;SDS011;64176;49.156;7.810;2023-05-07T12:25:11;2.78;;;2.30;;
75593;SDS011;64176;49.156;7.810;2023-05-07T12:27:54;2.78;;;2.05;;
75593;SDS011;64176;49.156;7.810;2023-05-07T12:30:39;2.25;;;2.00;;
75593;SDS011;64176;49.156;7.810;2023-05-07T12:33:25;4.40;;;3.35;;
75593;SDS011;64176;49.156;7.810;2023-05-07T12:36:12;5.63;;;3.55;;
75593;SDS011;64176;49.156;7.810;2023-05-07T12:38:57;2.75;;;2.33;;
75593;SDS011;64176;49.156;7.810;2023-05-07T12:41:53;3.83;;;3.53;;
75593;SDS011;64176;49.156;7.810;2023-05-07T12:44:43;5.63;;;2.63;;
75593;SDS011;64176;49.156;7.810;2023-05-07T12:47:30;2.95;;;2.22;;
75593;SDS011;64176;49.156;7.810;2023-05-07T12:50:14;2.53;;;1.90;;
75593;SDS011;64176;49.156;7.810;2023-05-07T12:52:59;5.38;;;2.40;;
75593;SDS011;64176;49.156;7.810;2023-05-07T12:55:47;2.42;;;2.20;;
75593;SDS011;64176;49.156;7.810;2023-05-07T12:58:33;4.03;;;2.15;;
75593;SDS011;64176;49.156;7.810;2023-05-07T13:01:18;2.30;;;2.05;;
75593;SDS011;64176;49.156;7.810;2023-05-07T13:04:03;4.28;;;2.42;;
75593;SDS011;64176;49.156;7.810;2023-05-07T13:06:47;10.60;;;2.17;;
75593;SDS011;64176;49.156;7.810;2023-05-07T13:09:31;2.28;;;1.90;;
75593;SDS011;64176;49.156;7.810;2023-05-07T13:12:15;2.63;;;1.98;;
75593;SDS011;64176;49.156;7.810;2023-05-07T13:15:02;4.90;;;1.52;;
75593;SDS011;64176;49.156;7.810;2023-05-07T13:17:46;3.83;;;2.00;;
75593;SDS011;64176;49.156;7.810;2023-05-07T13:20:31;4.20;;;2.30;;
75593;SDS011;64176;49.156;7.810;2023-05-07T13:23:14;5.78;;;2.55;;
75593;SDS011;64176;49.156;7.810;2023-05-07T13:25:58;3.75;;;1.42;;
75593;SDS011;64176;49.156;7.810;2023-05-07T13:28:42;2.10;;;1.88;;
75593;SDS011;64176;49.156;7.810;2023-05-07T13:31:27;3.03;;;1.70;;
75593;SDS011;64176;49.156;7.810;2023-05-07T13:34:11;2.38;;;1.80;;
75593;SDS011;64176;49.156;7.810;2023-05-07T13:36:55;3.95;;;1.85;;
75593;SDS011;64176;49.156;7.810;2023-05-07T13:42:26;5.13;;;2.60;;
75593;SDS011;64176;49.156;7.810;2023-05-07T13:45:12;3.67;;;1.77;;
75593;SDS011;64176;49.156;7.810;2023-05-07T13:47:58;2.95;;;2.65;;
75593;SDS011;64176;49.156;7.810;2023-05-07T13:50:43;2.95;;;2.20;;
75593;SDS011;64176;49.156;7.810;2023-05-07T13:53:29;2.70;;;2.05;;
75593;SDS011;64176;49.156;7.810;2023-05-07T13:56:16;3.33;;;1.98;;
75593;SDS011;64176;49.156;7.810;2023-05-07T13:59:00;2.90;;;2.03;;
75593;SDS011;64176;49.156;7.810;2023-05-07T14:01:44;2.00;;;1.60;;
75593;SDS011;64176;49.156;7.810;2023-05-07T14:04:31;3.80;;;1.58;;
75593;SDS011;64176;49.156;7.810;2023-05-07T14:07:15;2.33;;;1.85;;
75593;SDS011;64176;49.156;7.810;2023-05-07T14:10:01;2.05;;;1.70;;
75593;SDS011;64176;49.156;7.810;2023-05-07T14:12:46;4.43;;;2.17;;
75593;SDS011;64176;49.156;7.810;2023-05-07T14:15:32;4.30;;;1.60;;
75593;SDS011;64176;49.156;7.810;2023-05-07T14:18:16;3.80;;;2.58;;
75593;SDS011;64176;49.156;7.810;2023-05-07T14:21:04;3.10;;;1.70;;
75593;SDS011;64176;49.156;7.810;2023-05-07T14:23:50;2.70;;;1.42;;
75593;SDS011;64176;49.156;7.810;2023-05-07T14:26:34;1.90;;;1.58;;
75593;SDS011;64176;49.156;7.810;2023-05-07T14:29:21;2.78;;;2.05;;
75593;SDS011;64176;49.156;7.810;2023-05-07T14:32:06;2.38;;;1.50;;
75593;SDS011;64176;49.156;7.810;2023-05-07T14:34:50;3.50;;;1.92;;
75593;SDS011;64176;49.156;7.810;2023-05-07T14:37:34;2.17;;;1.33;;
75593;SDS011;64176;49.156;7.810;2023-05-07T14:40:18;2.22;;;1.30;;
75593;SDS011;64176;49.156;7.810;2023-05-07T14:43:05;1.83;;;1.60;;
75593;SDS011;64176;49.156;7.810;2023-05-07T14:48:33;5.05;;;1.40;;
75593;SDS011;64176;49.156;7.810;2023-05-07T14:51:17;5.05;;;1.55;;
75593;SDS011;64176;49.156;7.810;2023-05-07T14:54:01;2.53;;;1.70;;
75593;SDS011;64176;49.156;7.810;2023-05-07T14:56:45;4.18;;;1.77;;
75593;SDS011;64176;49.156;7.810;2023-05-07T14:59:30;4.32;;;1.88;;
75593;SDS011;64176;49.156;7.810;2023-05-07T15:02:13;2.55;;;1.48;;
75593;SDS011;64176;49.156;7.810;2023-05-07T15:04:59;3.17;;;1.65;;
75593;SDS011;64176;49.156;7.810;2023-05-07T15:07:45;3.28;;;1.80;;
75593;SDS011;64176;49.156;7.810;2023-05-07T15:10:29;5.88;;;2.17;;
75593;SDS011;64176;49.156;7.810;2023-05-07T15:13:13;4.13;;;2.45;;
75593;SDS011;64176;49.156;7.810;2023-05-07T15:15:57;4.07;;;2.35;;
75593;SDS011;64176;49.156;7.810;2023-05-07T15:18:42;3.83;;;2.47;;
75593;SDS011;64176;49.156;7.810;2023-05-07T15:21:29;4.30;;;2.60;;
75593;SDS011;64176;49.156;7.810;2023-05-07T15:24:14;3.17;;;2.15;;
75593;SDS011;64176;49.156;7.810;2023-05-07T15:29:46;5.03;;;2.60;;
75593;SDS011;64176;49.156;7.810;2023-05-07T15:32:32;5.03;;;2.10;;
75593;SDS011;64176;49.156;7.810;2023-05-07T15:35:16;3.53;;;2.10;;
75593;SDS011;64176;49.156;7.810;2023-05-07T15:38:05;2.58;;;2.33;;
75593;SDS011;64176;49.156;7.810;2023-05-07T15:40:49;2.90;;;2.60;;
75593;SDS011;64176;49.156;7.810;2023-05-07T15:43:33;4.90;;;2.25;;
75593;SDS011;64176;49.156;7.810;2023-05-07T15:46:21;4.00;;;2.35;;
75593;SDS011;64176;49.156;7.810;2023-05-07T15:49:08;4.82;;;2.47;;
75593;SDS011;64176;49.156;7.810;2023-05-07T15:51:52;3.13;;;2.10;;
75593;SDS011;64176;49.156;7.810;2023-05-07T15:54:38;7.13;;;3.45;;
75593;SDS011;64176;49.156;7.810;2023-05-07T15:57:25;4.45;;;2.85;;
75593;SDS011;64176;49.156;7.810;2023-05-07T16:00:09;4.72;;;2.20;;
75593;SDS011;64176;49.156;7.810;2023-05-07T16:02:56;8.60;;;2.63;;
75593;SDS011;64176;49.156;7.810;2023-05-07T16:05:43;10.20;;;2.65;;
75593;SDS011;64176;49.156;7.810;2023-05-07T16:08:32;3.97;;;2.50;;
75593;SDS011;64176;49.156;7.810;2023-05-07T16:11:16;4.72;;;2.28;;
75593;SDS011;64176;49.156;7.810;2023-05-07T16:14:03;3.88;;;2.63;;
75593;SDS011;64176;49.156;7.810;2023-05-07T16:16:47;4.18;;;2.45;;
75593;SDS011;64176;49.156;7.810;2023-05-07T16:25:02;4.40;;;2.42;;
75593;SDS011;64176;49.156;7.810;2023-05-07T16:27:48;3.55;;;2.20;;
75593;SDS011;64176;49.156;7.810;2023-05-07T16:30:31;3.42;;;2.83;;
75593;SDS011;64176;49.156;7.810;2023-05-07T16:33:16;2.88;;;2.35;;
75593;SDS011;64176;49.156;7.810;2023-05-07T16:38:49;3.17;;;2.03;;
75593;SDS011;64176;49.156;7.810;2023-05-07T16:41:33;3.30;;;2.53;;
75593;SDS011;64176;49.156;7.810;2023-05-07T16:44:18;4.28;;;2.92;;
75593;SDS011;64176;49.156;7.810;2023-05-07T16:47:02;6.15;;;2.70;;
75593;SDS011;64176;49.156;7.810;2023-05-07T16:49:48;3.92;;;3.63;;
75593;SDS011;64176;49.156;7.810;2023-05-07T16:52:33;1.40;;;1.27;;
75593;SDS011;64176;49.156;7.810;2023-05-07T16:55:17;1.90;;;1.80;;
75593;SDS011;64176;49.156;7.810;2023-05-07T16:58:01;1.70;;;1.30;;
75593;SDS011;64176;49.156;7.810;2023-05-07T17:00:45;5.13;;;2.08;;
75593;SDS011;64176;49.156;7.810;2023-05-07T17:03:29;1.75;;;1.50;;
75593;SDS011;64176;49.156;7.810;2023-05-07T17:06:14;4.72;;;2.67;;
75593;SDS011;64176;49.156;7.810;2023-05-07T17:08:58;6.05;;;2.60;;
75593;SDS011;64176;49.156;7.810;2023-05-07T17:11:45;2.95;;;1.63;;
75593;SDS011;64176;49.156;7.810;2023-05-07T17:14:32;6.75;;;4.10;;
75593;SDS011;64176;49.156;7.810;2023-05-07T17:17:16;4.80;;;2.35;;
75593;SDS011;64176;49.156;7.810;2023-05-07T17:20:05;5.35;;;2.00;;
75593;SDS011;64176;49.156;7.810;2023-05-07T17:22:49;3.55;;;1.90;;
75593;SDS011;64176;49.156;7.810;2023-05-07T17:25:33;3.08;;;1.55;;
75593;SDS011;64176;49.156;7.810;2023-05-07T17:28:19;2.15;;;1.50;;